sensor_id;sensor_type;location;lat;lon;timestamp;P1;durP1;ratioP1;P2;durP2;ratioP2
49101;SDS011;34913;47.520;19.186;2023-04-16T00:00:38;17.73;;;13.38;;
49101;SDS011;34913;47.520;19.186;2023-04-16T00:03:03;21.45;;;14.43;;
49101;SDS011;34913;47.520;19.186;2023-04-16T00:05:29;22.23;;;15.25;;
49101;SDS011;34913;47.520;19.186;2023-04-16T00:07:54;22.83;;;14.68;;
49101;SDS011;34913;47.520;19.186;2023-04-16T00:10:20;21.05;;;14.40;;
49101;SDS011;34913;47.520;19.186;2023-04-16T00:12:45;23.85;;;14.48;;
49101;SDS011;34913;47.520;19.186;2023-04-16T00:15:11;19.90;;;14.05;;
49101;SDS011;34913;47.520;19.186;2023-04-16T00:17:36;20.48;;;14.43;;
49101;SDS011;34913;47.520;19.186;2023-04-16T00:20:02;19.33;;;13.77;;
49101;SDS011;34913;47.520;19.186;2023-04-16T00:22:27;20.23;;;14.02;;
49101;SDS011;34913;47.520;19.186;2023-04-16T00:24:53;21.08;;;13.27;;
49101;SDS011;34913;47.520;19.186;2023-04-16T00:27:18;19.67;;;13.88;;
49101;SDS011;34913;47.520;19.186;2023-04-16T00:29:44;19.63;;;13.15;;
49101;SDS011;34913;47.520;19.186;2023-04-16T00:32:09;19.50;;;13.43;;
49101;SDS011;34913;47.520;19.186;2023-04-16T00:34:35;17.63;;;12.23;;
49101;SDS011;34913;47.520;19.186;2023-04-16T00:37:00;21.17;;;13.75;;
49101;SDS011;34913;47.520;19.186;2023-04-16T00:39:26;19.90;;;13.23;;
49101;SDS011;34913;47.520;19.186;2023-04-16T00:41:51;22.80;;;13.45;;
49101;SDS011;34913;47.520;19.186;2023-04-16T00:44:17;18.80;;;13.73;;
49101;SDS011;34913;47.520;19.186;2023-04-16T00:46:42;18.63;;;13.13;;
49101;SDS011;34913;47.520;19.186;2023-04-16T00:49:08;21.83;;;13.63;;
49101;SDS011;34913;47.520;19.186;2023-04-16T00:51:34;19.80;;;13.30;;
49101;SDS011;34913;47.520;19.186;2023-04-16T00:53:59;16.80;;;12.70;;
49101;SDS011;34913;47.520;19.186;2023-04-16T00:56:26;19.65;;;12.90;;
49101;SDS011;34913;47.520;19.186;2023-04-16T00:58:53;19.23;;;12.80;;
49101;SDS011;34913;47.520;19.186;2023-04-16T01:01:19;18.45;;;12.98;;
49101;SDS011;34913;47.520;19.186;2023-04-16T01:03:45;16.67;;;12.50;;
49101;SDS011;34913;47.520;19.186;2023-04-16T01:06:12;18.88;;;12.93;;
49101;SDS011;34913;47.520;19.186;2023-04-16T01:08:38;19.05;;;13.18;;
49101;SDS011;34913;47.520;19.186;2023-04-16T01:11:04;17.17;;;12.63;;
49101;SDS011;34913;47.520;19.186;2023-04-16T01:13:29;16.65;;;11.77;;
49101;SDS011;34913;47.520;19.186;2023-04-16T01:15:55;16.90;;;12.20;;
49101;SDS011;34913;47.520;19.186;2023-04-16T01:18:21;17.15;;;12.60;;
49101;SDS011;34913;47.520;19.186;2023-04-16T01:20:48;17.50;;;12.05;;
49101;SDS011;34913;47.520;19.186;2023-04-16T01:23:14;16.60;;;11.82;;
49101;SDS011;34913;47.520;19.186;2023-04-16T01:25:42;16.38;;;11.85;;
49101;SDS011;34913;47.520;19.186;2023-04-16T01:28:08;17.42;;;12.32;;
49101;SDS011;34913;47.520;19.186;2023-04-16T01:30:33;18.40;;;12.52;;
49101;SDS011;34913;47.520;19.186;2023-04-16T01:32:59;14.98;;;11.35;;
49101;SDS011;34913;47.520;19.186;2023-04-16T01:35:25;16.65;;;11.90;;
49101;SDS011;34913;47.520;19.186;2023-04-16T01:37:50;14.93;;;11.55;;
49101;SDS011;34913;47.520;19.186;2023-04-16T01:40:16;16.23;;;11.77;;
49101;SDS011;34913;47.520;19.186;2023-04-16T01:42:42;16.42;;;11.25;;
49101;SDS011;34913;47.520;19.186;2023-04-16T01:45:08;15.07;;;11.02;;
49101;SDS011;34913;47.520;19.186;2023-04-16T01:47:34;15.25;;;11.05;;
49101;SDS011;34913;47.520;19.186;2023-04-16T01:50:00;16.10;;;11.60;;
49101;SDS011;34913;47.520;19.186;2023-04-16T01:52:26;15.85;;;11.45;;
49101;SDS011;34913;47.520;19.186;2023-04-16T01:54:51;16.65;;;11.80;;
49101;SDS011;34913;47.520;19.186;2023-04-16T01:57:17;14.75;;;11.43;;
49101;SDS011;34913;47.520;19.186;2023-04-16T01:59:42;15.40;;;10.90;;
49101;SDS011;34913;47.520;19.186;2023-04-16T02:02:11;15.07;;;11.35;;
49101;SDS011;34913;47.520;19.186;2023-04-16T02:04:39;15.90;;;11.10;;
49101;SDS011;34913;47.520;19.186;2023-04-16T02:07:05;15.73;;;11.23;;
49101;SDS011;34913;47.520;19.186;2023-04-16T02:09:35;13.85;;;10.25;;
49101;SDS011;34913;47.520;19.186;2023-04-16T02:12:02;15.02;;;10.68;;
49101;SDS011;34913;47.520;19.186;2023-04-16T02:14:28;13.18;;;10.07;;
49101;SDS011;34913;47.520;19.186;2023-04-16T02:16:54;13.45;;;10.10;;
49101;SDS011;34913;47.520;19.186;2023-04-16T02:19:20;15.38;;;10.85;;
49101;SDS011;34913;47.520;19.186;2023-04-16T02:21:45;14.98;;;10.80;;
49101;SDS011;34913;47.520;19.186;2023-04-16T02:24:11;12.85;;;10.00;;
49101;SDS011;34913;47.520;19.186;2023-04-16T02:26:37;12.48;;;9.88;;
49101;SDS011;34913;47.520;19.186;2023-04-16T02:29:02;12.95;;;9.75;;
49101;SDS011;34913;47.520;19.186;2023-04-16T02:31:28;11.93;;;9.65;;
49101;SDS011;34913;47.520;19.186;2023-04-16T02:33:54;12.60;;;10.07;;
49101;SDS011;34913;47.520;19.186;2023-04-16T02:36:20;12.70;;;10.30;;
49101;SDS011;34913;47.520;19.186;2023-04-16T02:38:45;13.38;;;10.35;;
49101;SDS011;34913;47.520;19.186;2023-04-16T02:41:11;14.32;;;10.65;;
49101;SDS011;34913;47.520;19.186;2023-04-16T02:43:36;15.00;;;10.27;;
49101;SDS011;34913;47.520;19.186;2023-04-16T02:46:02;12.30;;;9.63;;
49101;SDS011;34913;47.520;19.186;2023-04-16T02:48:27;12.40;;;9.23;;
49101;SDS011;34913;47.520;19.186;2023-04-16T02:50:53;13.05;;;9.73;;
49101;SDS011;34913;47.520;19.186;2023-04-16T02:53:19;12.95;;;9.18;;
49101;SDS011;34913;47.520;19.186;2023-04-16T02:55:50;14.32;;;9.98;;
49101;SDS011;34913;47.520;19.186;2023-04-16T02:58:17;13.55;;;9.70;;
49101;SDS011;34913;47.520;19.186;2023-04-16T03:00:44;12.98;;;8.77;;
49101;SDS011;34913;47.520;19.186;2023-04-16T03:03:09;13.23;;;9.27;;
49101;SDS011;34913;47.520;19.186;2023-04-16T03:05:35;11.32;;;9.25;;
49101;SDS011;34913;47.520;19.186;2023-04-16T03:08:00;11.02;;;9.10;;
49101;SDS011;34913;47.520;19.186;2023-04-16T03:10:27;12.27;;;8.63;;
49101;SDS011;34913;47.520;19.186;2023-04-16T03:12:53;11.13;;;9.02;;
49101;SDS011;34913;47.520;19.186;2023-04-16T03:15:18;12.30;;;8.68;;
49101;SDS011;34913;47.520;19.186;2023-04-16T03:17:44;10.73;;;8.85;;
49101;SDS011;34913;47.520;19.186;2023-04-16T03:20:10;10.55;;;8.40;;
49101;SDS011;34913;47.520;19.186;2023-04-16T03:22:36;11.07;;;8.55;;
49101;SDS011;34913;47.520;19.186;2023-04-16T03:25:02;11.18;;;8.32;;
49101;SDS011;34913;47.520;19.186;2023-04-16T03:27:28;10.77;;;8.50;;
49101;SDS011;34913;47.520;19.186;2023-04-16T03:29:53;10.20;;;8.38;;
49101;SDS011;34913;47.520;19.186;2023-04-16T03:32:19;9.50;;;7.88;;
49101;SDS011;34913;47.520;19.186;2023-04-16T03:34:44;11.90;;;9.02;;
49101;SDS011;34913;47.520;19.186;2023-04-16T03:37:10;10.70;;;8.60;;
49101;SDS011;34913;47.520;19.186;2023-04-16T03:39:36;11.30;;;8.93;;
49101;SDS011;34913;47.520;19.186;2023-04-16T03:42:01;11.63;;;8.68;;
49101;SDS011;34913;47.520;19.186;2023-04-16T03:44:27;11.32;;;8.65;;
49101;SDS011;34913;47.520;19.186;2023-04-16T03:46:54;11.13;;;7.95;;
49101;SDS011;34913;47.520;19.186;2023-04-16T03:49:19;9.82;;;7.97;;
49101;SDS011;34913;47.520;19.186;2023-04-16T03:51:45;10.27;;;8.23;;
49101;SDS011;34913;47.520;19.186;2023-04-16T03:54:10;11.25;;;8.25;;
49101;SDS011;34913;47.520;19.186;2023-04-16T03:56:36;13.65;;;8.48;;
49101;SDS011;34913;47.520;19.186;2023-04-16T03:59:03;10.73;;;9.10;;
49101;SDS011;34913;47.520;19.186;2023-04-16T04:01:29;11.23;;;8.80;;
49101;SDS011;34913;47.520;19.186;2023-04-16T04:03:54;11.52;;;8.85;;
49101;SDS011;34913;47.520;19.186;2023-04-16T04:06:20;10.52;;;8.77;;
49101;SDS011;34913;47.520;19.186;2023-04-16T04:08:45;10.02;;;8.60;;
49101;SDS011;34913;47.520;19.186;2023-04-16T04:11:10;10.50;;;8.43;;
49101;SDS011;34913;47.520;19.186;2023-04-16T04:13:36;10.82;;;8.27;;
49101;SDS011;34913;47.520;19.186;2023-04-16T04:16:01;10.40;;;8.63;;
49101;SDS011;34913;47.520;19.186;2023-04-16T04:18:27;11.85;;;8.77;;
49101;SDS011;34913;47.520;19.186;2023-04-16T04:20:52;11.65;;;9.18;;
49101;SDS011;34913;47.520;19.186;2023-04-16T04:23:18;10.45;;;8.85;;
49101;SDS011;34913;47.520;19.186;2023-04-16T04:25:43;11.63;;;9.20;;
49101;SDS011;34913;47.520;19.186;2023-04-16T04:28:08;14.25;;;8.95;;
49101;SDS011;34913;47.520;19.186;2023-04-16T04:30:34;11.98;;;8.68;;
49101;SDS011;34913;47.520;19.186;2023-04-16T04:33:00;11.70;;;9.20;;
49101;SDS011;34913;47.520;19.186;2023-04-16T04:35:25;9.55;;;8.40;;
49101;SDS011;34913;47.520;19.186;2023-04-16T04:37:51;11.50;;;8.70;;
49101;SDS011;34913;47.520;19.186;2023-04-16T04:40:16;11.70;;;8.25;;
49101;SDS011;34913;47.520;19.186;2023-04-16T04:42:41;10.10;;;7.78;;
49101;SDS011;34913;47.520;19.186;2023-04-16T04:45:07;10.15;;;7.75;;
49101;SDS011;34913;47.520;19.186;2023-04-16T04:47:33;10.02;;;7.95;;
49101;SDS011;34913;47.520;19.186;2023-04-16T04:49:59;15.00;;;8.18;;
49101;SDS011;34913;47.520;19.186;2023-04-16T04:52:24;11.65;;;7.78;;
49101;SDS011;34913;47.520;19.186;2023-04-16T04:54:49;10.40;;;7.65;;
49101;SDS011;34913;47.520;19.186;2023-04-16T04:57:15;9.20;;;7.72;;
49101;SDS011;34913;47.520;19.186;2023-04-16T04:59:40;9.82;;;7.75;;
49101;SDS011;34913;47.520;19.186;2023-04-16T05:02:06;9.05;;;7.55;;
49101;SDS011;34913;47.520;19.186;2023-04-16T05:04:31;9.30;;;7.78;;
49101;SDS011;34913;47.520;19.186;2023-04-16T05:06:57;11.77;;;7.97;;
49101;SDS011;34913;47.520;19.186;2023-04-16T05:09:22;11.05;;;7.65;;
49101;SDS011;34913;47.520;19.186;2023-04-16T05:11:48;11.15;;;8.25;;
49101;SDS011;34913;47.520;19.186;2023-04-16T05:14:13;11.48;;;8.25;;
49101;SDS011;34913;47.520;19.186;2023-04-16T05:16:38;11.13;;;7.97;;
49101;SDS011;34913;47.520;19.186;2023-04-16T05:19:04;11.38;;;8.25;;
49101;SDS011;34913;47.520;19.186;2023-04-16T05:21:29;9.50;;;7.65;;
49101;SDS011;34913;47.520;19.186;2023-04-16T05:23:55;10.88;;;8.00;;
49101;SDS011;34913;47.520;19.186;2023-04-16T05:26:20;10.15;;;7.72;;
49101;SDS011;34913;47.520;19.186;2023-04-16T05:28:46;9.00;;;7.43;;
49101;SDS011;34913;47.520;19.186;2023-04-16T05:31:12;9.50;;;7.40;;
49101;SDS011;34913;47.520;19.186;2023-04-16T05:33:37;10.57;;;7.65;;
49101;SDS011;34913;47.520;19.186;2023-04-16T05:36:03;11.13;;;7.88;;
49101;SDS011;34913;47.520;19.186;2023-04-16T05:38:29;11.18;;;7.35;;
49101;SDS011;34913;47.520;19.186;2023-04-16T05:40:54;9.88;;;7.78;;
49101;SDS011;34913;47.520;19.186;2023-04-16T05:43:20;12.05;;;9.43;;
49101;SDS011;34913;47.520;19.186;2023-04-16T05:45:45;11.63;;;8.75;;
49101;SDS011;34913;47.520;19.186;2023-04-16T05:48:11;11.88;;;8.38;;
49101;SDS011;34913;47.520;19.186;2023-04-16T05:50:37;11.38;;;7.72;;
49101;SDS011;34913;47.520;19.186;2023-04-16T05:53:04;10.07;;;8.07;;
49101;SDS011;34913;47.520;19.186;2023-04-16T05:55:30;8.18;;;7.05;;
49101;SDS011;34913;47.520;19.186;2023-04-16T05:57:56;11.43;;;8.45;;
49101;SDS011;34913;47.520;19.186;2023-04-16T06:00:21;10.57;;;8.00;;
49101;SDS011;34913;47.520;19.186;2023-04-16T06:02:47;10.10;;;8.18;;
49101;SDS011;34913;47.520;19.186;2023-04-16T06:05:12;10.00;;;7.65;;
49101;SDS011;34913;47.520;19.186;2023-04-16T06:07:38;9.70;;;7.65;;
49101;SDS011;34913;47.520;19.186;2023-04-16T06:10:03;11.55;;;7.68;;
49101;SDS011;34913;47.520;19.186;2023-04-16T06:12:29;9.15;;;7.28;;
49101;SDS011;34913;47.520;19.186;2023-04-16T06:14:55;9.15;;;7.10;;
49101;SDS011;34913;47.520;19.186;2023-04-16T06:17:20;10.98;;;7.30;;
49101;SDS011;34913;47.520;19.186;2023-04-16T06:19:46;8.48;;;6.78;;
49101;SDS011;34913;47.520;19.186;2023-04-16T06:22:12;9.52;;;6.55;;
49101;SDS011;34913;47.520;19.186;2023-04-16T06:24:37;8.15;;;6.18;;
49101;SDS011;34913;47.520;19.186;2023-04-16T06:27:03;8.63;;;6.53;;
49101;SDS011;34913;47.520;19.186;2023-04-16T06:29:28;7.30;;;6.07;;
49101;SDS011;34913;47.520;19.186;2023-04-16T06:31:54;8.13;;;5.95;;
49101;SDS011;34913;47.520;19.186;2023-04-16T06:34:19;7.40;;;6.00;;
49101;SDS011;34913;47.520;19.186;2023-04-16T06:36:45;7.13;;;5.85;;
49101;SDS011;34913;47.520;19.186;2023-04-16T06:39:10;6.68;;;5.35;;
49101;SDS011;34913;47.520;19.186;2023-04-16T06:41:35;7.50;;;5.03;;
49101;SDS011;34913;47.520;19.186;2023-04-16T06:44:01;7.43;;;5.18;;
49101;SDS011;34913;47.520;19.186;2023-04-16T06:46:26;5.72;;;5.03;;
49101;SDS011;34913;47.520;19.186;2023-04-16T06:48:52;7.20;;;5.32;;
49101;SDS011;34913;47.520;19.186;2023-04-16T06:51:17;6.47;;;5.30;;
49101;SDS011;34913;47.520;19.186;2023-04-16T06:53:43;7.32;;;5.10;;
49101;SDS011;34913;47.520;19.186;2023-04-16T06:56:08;7.78;;;5.38;;
49101;SDS011;34913;47.520;19.186;2023-04-16T06:58:34;9.52;;;6.20;;
49101;SDS011;34913;47.520;19.186;2023-04-16T07:01:00;7.75;;;5.55;;
49101;SDS011;34913;47.520;19.186;2023-04-16T07:03:26;6.68;;;5.40;;
49101;SDS011;34913;47.520;19.186;2023-04-16T07:05:52;6.95;;;5.20;;
49101;SDS011;34913;47.520;19.186;2023-04-16T07:08:17;6.50;;;4.93;;
49101;SDS011;34913;47.520;19.186;2023-04-16T07:10:43;7.97;;;5.35;;
49101;SDS011;34913;47.520;19.186;2023-04-16T07:13:09;5.88;;;4.80;;
49101;SDS011;34913;47.520;19.186;2023-04-16T07:15:34;6.38;;;4.55;;
49101;SDS011;34913;47.520;19.186;2023-04-16T07:18:00;5.18;;;4.55;;
49101;SDS011;34913;47.520;19.186;2023-04-16T07:20:26;5.50;;;4.32;;
49101;SDS011;34913;47.520;19.186;2023-04-16T07:22:51;4.90;;;4.40;;
49101;SDS011;34913;47.520;19.186;2023-04-16T07:25:17;4.43;;;4.03;;
49101;SDS011;34913;47.520;19.186;2023-04-16T07:27:42;5.10;;;4.30;;
49101;SDS011;34913;47.520;19.186;2023-04-16T07:30:08;5.55;;;3.88;;
49101;SDS011;34913;47.520;19.186;2023-04-16T07:32:34;4.75;;;3.78;;
49101;SDS011;34913;47.520;19.186;2023-04-16T07:34:59;5.57;;;3.75;;
49101;SDS011;34913;47.520;19.186;2023-04-16T07:37:25;5.35;;;3.90;;
49101;SDS011;34913;47.520;19.186;2023-04-16T07:39:50;5.18;;;4.05;;
49101;SDS011;34913;47.520;19.186;2023-04-16T07:42:16;6.05;;;4.00;;
49101;SDS011;34913;47.520;19.186;2023-04-16T07:44:42;4.72;;;4.20;;
49101;SDS011;34913;47.520;19.186;2023-04-16T07:47:08;4.10;;;3.70;;
49101;SDS011;34913;47.520;19.186;2023-04-16T07:49:33;5.00;;;4.03;;
49101;SDS011;34913;47.520;19.186;2023-04-16T07:51:59;4.38;;;3.47;;
49101;SDS011;34913;47.520;19.186;2023-04-16T07:54:24;5.93;;;3.67;;
49101;SDS011;34913;47.520;19.186;2023-04-16T07:56:50;6.53;;;3.90;;
49101;SDS011;34913;47.520;19.186;2023-04-16T07:59:16;4.60;;;3.45;;
49101;SDS011;34913;47.520;19.186;2023-04-16T08:01:41;5.32;;;3.60;;
49101;SDS011;34913;47.520;19.186;2023-04-16T08:04:07;4.50;;;3.40;;
49101;SDS011;34913;47.520;19.186;2023-04-16T08:06:32;3.83;;;3.30;;
49101;SDS011;34913;47.520;19.186;2023-04-16T08:08:57;4.78;;;3.33;;
49101;SDS011;34913;47.520;19.186;2023-04-16T08:11:23;4.43;;;3.50;;
49101;SDS011;34913;47.520;19.186;2023-04-16T08:13:48;5.00;;;3.30;;
49101;SDS011;34913;47.520;19.186;2023-04-16T08:16:14;3.80;;;3.40;;
49101;SDS011;34913;47.520;19.186;2023-04-16T08:18:39;3.45;;;3.10;;
49101;SDS011;34913;47.520;19.186;2023-04-16T08:21:05;3.90;;;3.28;;
49101;SDS011;34913;47.520;19.186;2023-04-16T08:23:30;3.22;;;2.92;;
49101;SDS011;34913;47.520;19.186;2023-04-16T08:25:56;6.30;;;3.28;;
49101;SDS011;34913;47.520;19.186;2023-04-16T08:28:22;3.55;;;3.22;;
49101;SDS011;34913;47.520;19.186;2023-04-16T08:30:47;4.30;;;3.45;;
49101;SDS011;34913;47.520;19.186;2023-04-16T08:33:13;5.05;;;3.40;;
49101;SDS011;34913;47.520;19.186;2023-04-16T08:35:38;4.90;;;3.50;;
49101;SDS011;34913;47.520;19.186;2023-04-16T08:38:05;5.00;;;3.75;;
49101;SDS011;34913;47.520;19.186;2023-04-16T08:40:31;4.90;;;3.42;;
49101;SDS011;34913;47.520;19.186;2023-04-16T08:43:02;3.60;;;3.00;;
49101;SDS011;34913;47.520;19.186;2023-04-16T08:45:30;4.07;;;3.13;;
49101;SDS011;34913;47.520;19.186;2023-04-16T08:47:58;4.60;;;3.08;;
49101;SDS011;34913;47.520;19.186;2023-04-16T08:50:25;4.68;;;3.38;;
49101;SDS011;34913;47.520;19.186;2023-04-16T08:53:03;3.95;;;3.00;;
49101;SDS011;34913;47.520;19.186;2023-04-16T08:55:41;3.65;;;2.95;;
49101;SDS011;34913;47.520;19.186;2023-04-16T09:00:42;5.32;;;2.85;;
49101;SDS011;34913;47.520;19.186;2023-04-16T09:03:10;3.30;;;2.85;;
49101;SDS011;34913;47.520;19.186;2023-04-16T09:05:36;6.63;;;2.83;;
49101;SDS011;34913;47.520;19.186;2023-04-16T09:08:03;2.60;;;2.40;;
49101;SDS011;34913;47.520;19.186;2023-04-16T09:10:29;3.53;;;2.63;;
49101;SDS011;34913;47.520;19.186;2023-04-16T09:12:55;4.22;;;2.80;;
49101;SDS011;34913;47.520;19.186;2023-04-16T09:15:21;3.55;;;2.72;;
49101;SDS011;34913;47.520;19.186;2023-04-16T09:17:48;5.47;;;2.55;;
49101;SDS011;34913;47.520;19.186;2023-04-16T09:20:13;2.97;;;2.60;;
49101;SDS011;34913;47.520;19.186;2023-04-16T09:22:39;2.75;;;2.55;;
49101;SDS011;34913;47.520;19.186;2023-04-16T09:25:05;2.60;;;2.40;;
49101;SDS011;34913;47.520;19.186;2023-04-16T09:27:31;3.40;;;2.92;;
49101;SDS011;34913;47.520;19.186;2023-04-16T09:29:57;3.00;;;2.70;;
49101;SDS011;34913;47.520;19.186;2023-04-16T09:32:26;2.72;;;2.53;;
49101;SDS011;34913;47.520;19.186;2023-04-16T09:34:53;2.95;;;2.45;;
49101;SDS011;34913;47.520;19.186;2023-04-16T09:37:24;2.67;;;2.35;;
49101;SDS011;34913;47.520;19.186;2023-04-16T09:39:58;3.80;;;2.65;;
49101;SDS011;34913;47.520;19.186;2023-04-16T09:42:31;3.35;;;2.50;;
49101;SDS011;34913;47.520;19.186;2023-04-16T09:44:58;4.00;;;2.47;;
49101;SDS011;34913;47.520;19.186;2023-04-16T09:47:44;3.63;;;2.70;;
49101;SDS011;34913;47.520;19.186;2023-04-16T09:50:13;3.17;;;2.25;;
49101;SDS011;34913;47.520;19.186;2023-04-16T09:52:42;2.85;;;2.20;;
49101;SDS011;34913;47.520;19.186;2023-04-16T09:55:09;2.25;;;2.05;;
49101;SDS011;34913;47.520;19.186;2023-04-16T09:57:36;2.53;;;2.03;;
49101;SDS011;34913;47.520;19.186;2023-04-16T10:00:04;2.83;;;1.75;;
49101;SDS011;34913;47.520;19.186;2023-04-16T10:02:31;2.00;;;1.70;;
49101;SDS011;34913;47.520;19.186;2023-04-16T10:04:59;2.08;;;1.30;;
49101;SDS011;34913;47.520;19.186;2023-04-16T10:07:26;2.20;;;1.55;;
49101;SDS011;34913;47.520;19.186;2023-04-16T10:09:53;1.55;;;1.23;;
49101;SDS011;34913;47.520;19.186;2023-04-16T10:12:19;3.58;;;1.40;;
49101;SDS011;34913;47.520;19.186;2023-04-16T10:14:45;2.47;;;1.27;;
49101;SDS011;34913;47.520;19.186;2023-04-16T10:17:11;2.05;;;1.15;;
49101;SDS011;34913;47.520;19.186;2023-04-16T10:19:36;3.72;;;1.70;;
49101;SDS011;34913;47.520;19.186;2023-04-16T10:22:03;3.83;;;1.40;;
49101;SDS011;34913;47.520;19.186;2023-04-16T10:24:28;2.75;;;1.30;;
49101;SDS011;34913;47.520;19.186;2023-04-16T10:26:56;1.40;;;1.20;;
49101;SDS011;34913;47.520;19.186;2023-04-16T10:29:22;1.67;;;1.10;;
49101;SDS011;34913;47.520;19.186;2023-04-16T10:31:49;1.67;;;1.10;;
49101;SDS011;34913;47.520;19.186;2023-04-16T10:34:15;2.63;;;1.55;;
49101;SDS011;34913;47.520;19.186;2023-04-16T10:36:45;1.45;;;1.25;;
49101;SDS011;34913;47.520;19.186;2023-04-16T10:39:14;1.83;;;1.20;;
49101;SDS011;34913;47.520;19.186;2023-04-16T10:41:43;3.13;;;1.50;;
49101;SDS011;34913;47.520;19.186;2023-04-16T10:44:09;2.55;;;1.70;;
49101;SDS011;34913;47.520;19.186;2023-04-16T10:46:38;3.03;;;1.25;;
49101;SDS011;34913;47.520;19.186;2023-04-16T10:51:50;1.40;;;1.20;;
49101;SDS011;34913;47.520;19.186;2023-04-16T10:54:21;1.40;;;1.00;;
49101;SDS011;34913;47.520;19.186;2023-04-16T10:56:49;1.10;;;1.00;;
49101;SDS011;34913;47.520;19.186;2023-04-16T10:59:19;1.25;;;1.10;;
49101;SDS011;34913;47.520;19.186;2023-04-16T11:01:47;2.35;;;1.08;;
49101;SDS011;34913;47.520;19.186;2023-04-16T11:12:39;1.05;;;0.95;;
49101;SDS011;34913;47.520;19.186;2023-04-16T11:15:13;2.28;;;1.15;;
49101;SDS011;34913;47.520;19.186;2023-04-16T11:17:41;2.25;;;1.20;;
49101;SDS011;34913;47.520;19.186;2023-04-16T11:20:08;2.00;;;1.17;;
49101;SDS011;34913;47.520;19.186;2023-04-16T11:22:55;2.08;;;1.20;;
49101;SDS011;34913;47.520;19.186;2023-04-16T11:25:28;1.63;;;1.10;;
49101;SDS011;34913;47.520;19.186;2023-04-16T11:27:55;1.42;;;1.00;;
49101;SDS011;34913;47.520;19.186;2023-04-16T11:30:35;1.92;;;1.30;;
49101;SDS011;34913;47.520;19.186;2023-04-16T11:33:08;1.77;;;1.23;;
49101;SDS011;34913;47.520;19.186;2023-04-16T11:35:38;1.55;;;0.90;;
49101;SDS011;34913;47.520;19.186;2023-04-16T11:38:04;2.10;;;1.30;;
49101;SDS011;34913;47.520;19.186;2023-04-16T11:40:33;1.10;;;1.00;;
49101;SDS011;34913;47.520;19.186;2023-04-16T11:43:03;1.80;;;1.30;;
49101;SDS011;34913;47.520;19.186;2023-04-16T11:45:37;1.80;;;1.20;;
49101;SDS011;34913;47.520;19.186;2023-04-16T11:48:02;1.45;;;1.25;;
49101;SDS011;34913;47.520;19.186;2023-04-16T11:50:28;3.05;;;0.90;;
49101;SDS011;34913;47.520;19.186;2023-04-16T11:52:54;1.65;;;0.90;;
49101;SDS011;34913;47.520;19.186;2023-04-16T11:55:21;1.80;;;0.98;;
49101;SDS011;34913;47.520;19.186;2023-04-16T11:57:47;1.35;;;1.02;;
49101;SDS011;34913;47.520;19.186;2023-04-16T12:00:14;1.30;;;0.93;;
49101;SDS011;34913;47.520;19.186;2023-04-16T12:02:41;1.88;;;1.10;;
49101;SDS011;34913;47.520;19.186;2023-04-16T12:05:32;3.00;;;1.50;;
49101;SDS011;34913;47.520;19.186;2023-04-16T12:08:00;3.67;;;1.10;;
49101;SDS011;34913;47.520;19.186;2023-04-16T12:10:27;1.75;;;0.93;;
49101;SDS011;34913;47.520;19.186;2023-04-16T12:12:53;1.35;;;1.20;;
49101;SDS011;34913;47.520;19.186;2023-04-16T12:15:20;1.27;;;1.13;;
49101;SDS011;34913;47.520;19.186;2023-04-16T12:17:45;2.80;;;1.25;;
49101;SDS011;34913;47.520;19.186;2023-04-16T12:20:12;2.40;;;1.30;;
49101;SDS011;34913;47.520;19.186;2023-04-16T12:22:40;3.92;;;1.50;;
49101;SDS011;34913;47.520;19.186;2023-04-16T12:25:13;2.13;;;1.30;;
49101;SDS011;34913;47.520;19.186;2023-04-16T12:27:50;3.55;;;1.40;;
49101;SDS011;34913;47.520;19.186;2023-04-16T12:30:23;2.78;;;0.90;;
49101;SDS011;34913;47.520;19.186;2023-04-16T12:32:51;1.25;;;0.80;;
49101;SDS011;34913;47.520;19.186;2023-04-16T12:35:31;1.50;;;0.80;;
49101;SDS011;34913;47.520;19.186;2023-04-16T12:37:57;1.65;;;0.75;;
49101;SDS011;34913;47.520;19.186;2023-04-16T12:40:23;0.68;;;0.68;;
49101;SDS011;34913;47.520;19.186;2023-04-16T12:42:49;0.70;;;0.70;;
49101;SDS011;34913;47.520;19.186;2023-04-16T12:45:15;1.27;;;0.70;;
49101;SDS011;34913;47.520;19.186;2023-04-16T12:47:40;3.63;;;0.90;;
49101;SDS011;34913;47.520;19.186;2023-04-16T12:50:06;1.02;;;0.75;;
49101;SDS011;34913;47.520;19.186;2023-04-16T12:52:32;1.67;;;0.70;;
49101;SDS011;34913;47.520;19.186;2023-04-16T12:54:58;0.60;;;0.60;;
49101;SDS011;34913;47.520;19.186;2023-04-16T12:57:25;1.30;;;0.70;;
49101;SDS011;34913;47.520;19.186;2023-04-16T12:59:55;1.17;;;0.73;;
49101;SDS011;34913;47.520;19.186;2023-04-16T13:02:21;1.50;;;0.90;;
49101;SDS011;34913;47.520;19.186;2023-04-16T13:04:47;1.42;;;0.75;;
49101;SDS011;34913;47.520;19.186;2023-04-16T13:07:17;2.50;;;1.20;;
49101;SDS011;34913;47.520;19.186;2023-04-16T13:09:43;2.25;;;0.75;;
49101;SDS011;34913;47.520;19.186;2023-04-16T13:12:09;2.95;;;0.75;;
49101;SDS011;34913;47.520;19.186;2023-04-16T13:14:35;1.00;;;0.70;;
49101;SDS011;34913;47.520;19.186;2023-04-16T13:17:00;1.80;;;0.82;;
49101;SDS011;34913;47.520;19.186;2023-04-16T13:19:25;1.50;;;0.90;;
49101;SDS011;34913;47.520;19.186;2023-04-16T13:21:51;2.35;;;0.82;;
49101;SDS011;34913;47.520;19.186;2023-04-16T13:24:17;1.45;;;0.70;;
49101;SDS011;34913;47.520;19.186;2023-04-16T13:26:43;1.00;;;0.70;;
49101;SDS011;34913;47.520;19.186;2023-04-16T13:29:08;1.27;;;0.80;;
49101;SDS011;34913;47.520;19.186;2023-04-16T13:31:34;1.48;;;0.73;;
49101;SDS011;34913;47.520;19.186;2023-04-16T13:33:59;1.20;;;0.75;;
49101;SDS011;34913;47.520;19.186;2023-04-16T13:36:25;2.05;;;0.70;;
49101;SDS011;34913;47.520;19.186;2023-04-16T13:38:51;2.03;;;0.80;;
49101;SDS011;34913;47.520;19.186;2023-04-16T13:41:17;0.93;;;0.80;;
49101;SDS011;34913;47.520;19.186;2023-04-16T13:43:42;0.90;;;0.70;;
49101;SDS011;34913;47.520;19.186;2023-04-16T13:46:07;0.95;;;0.70;;
49101;SDS011;34913;47.520;19.186;2023-04-16T13:48:33;2.30;;;0.70;;
49101;SDS011;34913;47.520;19.186;2023-04-16T13:50:58;1.70;;;0.80;;
49101;SDS011;34913;47.520;19.186;2023-04-16T13:53:24;0.93;;;0.70;;
49101;SDS011;34913;47.520;19.186;2023-04-16T13:55:49;1.63;;;0.65;;
49101;SDS011;34913;47.520;19.186;2023-04-16T13:58:15;2.40;;;1.20;;
49101;SDS011;34913;47.520;19.186;2023-04-16T14:00:41;1.67;;;0.80;;
49101;SDS011;34913;47.520;19.186;2023-04-16T14:03:07;1.25;;;0.80;;
49101;SDS011;34913;47.520;19.186;2023-04-16T14:05:32;2.35;;;0.90;;
49101;SDS011;34913;47.520;19.186;2023-04-16T14:07:58;1.60;;;0.73;;
49101;SDS011;34913;47.520;19.186;2023-04-16T14:10:23;1.30;;;0.80;;
49101;SDS011;34913;47.520;19.186;2023-04-16T14:12:48;2.45;;;0.77;;
49101;SDS011;34913;47.520;19.186;2023-04-16T14:15:14;1.05;;;0.80;;
49101;SDS011;34913;47.520;19.186;2023-04-16T14:17:40;1.17;;;0.68;;
49101;SDS011;34913;47.520;19.186;2023-04-16T14:20:07;1.30;;;0.80;;
49101;SDS011;34913;47.520;19.186;2023-04-16T14:22:33;0.95;;;0.70;;
49101;SDS011;34913;47.520;19.186;2023-04-16T14:24:59;2.08;;;0.80;;
49101;SDS011;34913;47.520;19.186;2023-04-16T14:27:25;1.80;;;0.52;;
49101;SDS011;34913;47.520;19.186;2023-04-16T14:29:51;1.33;;;0.70;;
49101;SDS011;34913;47.520;19.186;2023-04-16T14:32:16;0.85;;;0.60;;
49101;SDS011;34913;47.520;19.186;2023-04-16T14:34:42;1.33;;;0.70;;